Time;durP1;ratioP1;P1;durP2;ratioP2;P2;SDS_P1;SDS_P2;PMS_P1;PMS_P2;Temp;Humidity;BMP_temperature;BMP_pressure;BME280_temperature;BME280_humidity;BME280_pressure;Samples;Min_cycle;Max_cycle;Signal;HPM_P1;HPM_P2
2021/10/24 00:01:19;;;;;;;11.05;3.53;;;8.40;99.90;;;;;;5087959;28;20024;-46
2021/10/24 00:03:45;;;;;;;8.20;2.85;;;8.40;99.90;;;;;;5079941;28;20051;-45
2021/10/24 00:06:11;;;;;;;8.65;3.50;;;8.30;99.90;;;;;;5081550;28;20103;-46
2021/10/24 00:08:36;;;;;;;10.82;3.90;;;8.30;99.90;;;;;;5085581;28;20099;-46
2021/10/24 00:11:03;;;;;;;9.45;2.88;;;8.20;99.90;;;;;;5079737;28;20024;-45
2021/10/24 00:13:29;;;;;;;7.72;3.55;;;8.20;99.90;;;;;;5091589;28;20032;-47
2021/10/24 00:15:56;;;;;;;18.85;4.20;;;8.20;99.90;;;;;;5091535;28;20069;-45
2021/10/24 00:18:22;;;;;;;8.10;3.45;;;8.10;99.90;;;;;;5081539;28;20029;-43
2021/10/24 00:20:47;;;;;;;9.55;3.15;;;8.00;99.90;;;;;;5090091;28;20042;-46
2021/10/24 00:23:14;;;;;;;4.60;2.58;;;7.90;99.90;;;;;;5091371;28;20113;-43
2021/10/24 00:25:39;;;;;;;7.28;2.90;;;7.90;99.90;;;;;;5091488;28;20020;-43
2021/10/24 00:28:05;;;;;;;11.63;3.28;;;7.90;99.90;;;;;;5088930;28;20035;-43
2021/10/24 00:30:31;;;;;;;13.65;3.88;;;7.80;99.90;;;;;;5075595;28;20029;-43
2021/10/24 00:32:56;;;;;;;15.88;3.40;;;7.70;99.90;;;;;;5090989;28;20020;-44
2021/10/24 00:35:22;;;;;;;10.35;3.92;;;7.70;99.90;;;;;;5090809;28;20359;-43
2021/10/24 00:37:47;;;;;;;9.77;3.25;;;7.60;99.90;;;;;;5090354;28;20259;-43
2021/10/24 00:40:13;;;;;;;8.40;3.08;;;7.50;99.90;;;;;;5089502;28;20043;-43
2021/10/24 00:42:51;;;;;;;7.80;3.67;;;7.40;99.90;;;;;;5091354;28;20036;-43
2021/10/24 00:45:17;;;;;;;11.25;3.47;;;7.40;99.90;;;;;;5090545;28;20085;-43
2021/10/24 00:47:43;;;;;;;7.47;2.95;;;7.30;99.90;;;;;;5089906;28;20420;-43
2021/10/24 00:50:08;;;;;;;7.35;2.55;;;7.30;99.90;;;;;;5090710;28;20031;-43
2021/10/24 00:52:34;;;;;;;12.50;4.05;;;7.30;99.90;;;;;;5090810;28;20081;-43
2021/10/24 00:55:00;;;;;;;8.85;3.22;;;7.20;99.90;;;;;;5082912;28;20078;-43
2021/10/24 00:57:25;;;;;;;7.03;2.63;;;7.10;99.90;;;;;;5085870;28;20434;-44
2021/10/24 00:59:51;;;;;;;9.40;3.13;;;7.10;99.90;;;;;;5090122;28;20036;-42
2021/10/24 01:02:17;;;;;;;6.57;3.25;;;7.10;99.90;;;;;;5088984;28;20224;-42
2021/10/24 01:04:44;;;;;;;8.30;3.47;;;7.00;99.90;;;;;;5090164;28;20027;-44
2021/10/24 01:07:12;;;;;;;9.95;3.30;;;7.00;99.90;;;;;;5088492;28;20028;-46
2021/10/24 01:09:38;;;;;;;8.05;3.08;;;7.00;99.90;;;;;;5086412;28;20047;-45
2021/10/24 01:12:04;;;;;;;13.77;4.15;;;6.90;99.90;;;;;;5081773;28;20024;-48
2021/10/24 01:14:29;;;;;;;10.70;3.17;;;6.90;99.90;;;;;;5081759;28;20032;-45
2021/10/24 01:16:55;;;;;;;12.32;3.45;;;6.80;99.90;;;;;;5081144;28;20024;-45
2021/10/24 01:19:22;;;;;;;8.10;2.90;;;6.80;99.90;;;;;;5089586;28;20115;-45
2021/10/24 01:21:47;;;;;;;13.68;3.47;;;6.70;99.90;;;;;;5089836;28;20474;-45
2021/10/24 01:24:14;;;;;;;9.55;3.00;;;6.70;99.90;;;;;;5090460;28;20039;-46
2021/10/24 01:26:40;;;;;;;10.40;2.95;;;6.60;99.90;;;;;;5089990;28;20032;-46
2021/10/24 01:29:08;;;;;;;10.23;2.85;;;6.60;99.90;;;;;;5089563;28;20020;-46
2021/10/24 01:31:34;;;;;;;10.70;2.65;;;6.60;99.90;;;;;;5089931;28;20028;-45
2021/10/24 01:34:00;;;;;;;10.07;2.55;;;6.60;99.90;;;;;;5082624;28;20040;-46
2021/10/24 01:36:25;;;;;;;8.75;3.05;;;6.60;99.90;;;;;;5085331;28;20055;-46
2021/10/24 01:38:51;;;;;;;9.27;2.58;;;6.60;99.90;;;;;;5087879;28;20054;-46
2021/10/24 01:41:19;;;;;;;6.35;3.22;;;6.60;99.90;;;;;;5089884;28;20056;-45
2021/10/24 01:43:46;;;;;;;8.93;2.55;;;6.60;99.90;;;;;;5089576;28;20024;-45
2021/10/24 01:46:13;;;;;;;15.43;3.40;;;6.50;99.90;;;;;;5074411;28;20032;-46
2021/10/24 01:48:39;;;;;;;11.90;2.97;;;6.50;99.90;;;;;;5086293;28;20469;-45
2021/10/24 01:51:05;;;;;;;8.00;2.40;;;6.50;99.90;;;;;;5089589;28;20381;-48
2021/10/24 01:53:35;;;;;;;6.55;3.60;;;6.50;99.90;;;;;;5078011;28;20036;-48
2021/10/24 01:56:01;;;;;;;10.45;3.83;;;6.50;99.90;;;;;;5069670;28;20040;-45
2021/10/24 01:58:27;;;;;;;9.43;3.33;;;6.40;99.90;;;;;;5068677;28;20442;-46
2021/10/24 02:00:53;;;;;;;9.77;3.47;;;6.40;99.90;;;;;;5069438;28;20115;-45
2021/10/24 02:03:18;;;;;;;8.05;3.38;;;6.30;99.90;;;;;;5061741;28;20108;-45
2021/10/24 02:05:46;;;;;;;5.80;2.53;;;6.30;99.90;;;;;;5059304;28;20028;-47
2021/10/24 02:08:12;;;;;;;6.72;3.17;;;6.30;99.90;;;;;;5089143;28;20378;-45
2021/10/24 02:10:38;;;;;;;8.63;3.08;;;6.30;99.90;;;;;;5072825;28;20031;-45
2021/10/24 02:13:04;;;;;;;6.70;2.53;;;6.30;99.90;;;;;;5081980;28;20035;-44
2021/10/24 02:15:31;;;;;;;8.45;2.65;;;6.30;99.90;;;;;;5089599;28;20099;-45
2021/10/24 02:17:56;;;;;;;9.55;2.60;;;6.30;99.90;;;;;;5087327;28;20039;-43
2021/10/24 02:20:22;;;;;;;8.23;2.55;;;6.20;99.90;;;;;;5083786;28;20393;-46
2021/10/24 02:22:48;;;;;;;8.38;3.30;;;6.20;99.90;;;;;;5080852;28;20541;-48
2021/10/24 02:25:14;;;;;;;11.45;3.00;;;6.20;99.90;;;;;;5086729;28;20039;-45
2021/10/24 02:27:40;;;;;;;7.78;3.25;;;6.10;99.90;;;;;;5075133;28;20074;-48
2021/10/24 02:30:08;;;;;;;9.00;3.10;;;6.10;99.90;;;;;;5080324;28;20052;-45
2021/10/24 02:32:34;;;;;;;9.90;3.17;;;6.10;99.90;;;;;;5057824;28;20047;-45
2021/10/24 02:34:59;;;;;;;8.95;2.63;;;6.10;99.90;;;;;;5060880;28;20028;-46
2021/10/24 02:37:25;;;;;;;12.35;3.45;;;6.10;99.90;;;;;;5063678;28;20032;-45
2021/10/24 02:39:50;;;;;;;8.50;3.17;;;6.10;99.90;;;;;;5059139;28;20559;-46
2021/10/24 02:42:16;;;;;;;12.73;3.20;;;6.10;99.90;;;;;;5057897;28;20025;-46
2021/10/24 02:44:42;;;;;;;12.05;3.20;;;6.10;99.90;;;;;;5058109;28;20371;-46
2021/10/24 02:47:07;;;;;;;6.43;3.13;;;6.10;99.90;;;;;;5061690;28;20020;-46
2021/10/24 02:49:33;;;;;;;6.45;2.92;;;6.10;99.90;;;;;;5063955;28;20055;-46
2021/10/24 02:51:59;;;;;;;11.80;3.10;;;6.00;99.90;;;;;;5058098;28;20012;-46
2021/10/24 02:54:26;;;;;;;10.15;3.17;;;6.00;99.90;;;;;;5058692;28;20028;-46
2021/10/24 02:56:52;;;;;;;5.05;2.63;;;5.90;99.90;;;;;;5057079;28;20248;-46
2021/10/24 02:59:18;;;;;;;6.55;3.05;;;5.90;99.90;;;;;;5057574;28;20031;-46
2021/10/24 03:01:44;;;;;;;7.80;3.83;;;5.90;99.90;;;;;;5058260;28;20360;-47
2021/10/24 03:04:12;;;;;;;8.73;3.53;;;5.90;99.90;;;;;;5055889;28;20095;-44
2021/10/24 03:06:39;;;;;;;6.85;2.70;;;5.90;99.90;;;;;;5064583;28;20029;-45
2021/10/24 03:09:05;;;;;;;8.30;2.58;;;5.90;99.90;;;;;;5054470;28;20911;-45
2021/10/24 03:11:31;;;;;;;13.13;3.28;;;5.90;99.90;;;;;;5063108;28;20021;-45
2021/10/24 03:13:56;;;;;;;8.13;3.08;;;5.80;99.90;;;;;;5064060;28;20383;-45
2021/10/24 03:16:22;;;;;;;6.13;2.90;;;5.80;99.90;;;;;;5066606;28;20103;-45
2021/10/24 03:18:47;;;;;;;15.45;3.28;;;5.80;99.90;;;;;;5067511;28;20262;-45
2021/10/24 03:21:13;;;;;;;10.85;3.03;;;5.70;99.90;;;;;;5075225;28;20043;-45
2021/10/24 03:23:39;;;;;;;7.70;3.42;;;5.80;99.90;;;;;;5085787;28;20294;-45
2021/10/24 03:26:05;;;;;;;9.75;3.15;;;5.70;99.90;;;;;;5088121;28;20111;-47
2021/10/24 03:28:30;;;;;;;12.18;3.28;;;5.70;99.90;;;;;;5087546;28;20047;-46
2021/10/24 03:30:58;;;;;;;12.07;2.97;;;5.70;99.90;;;;;;5088578;28;20031;-46
2021/10/24 03:33:23;;;;;;;11.18;3.72;;;5.70;99.90;;;;;;5088195;28;20066;-47
2021/10/24 03:35:49;;;;;;;8.07;2.55;;;5.70;99.90;;;;;;5088664;28;20058;-46
2021/10/24 03:38:14;;;;;;;8.80;3.05;;;5.70;99.90;;;;;;5073984;28;20498;-45
2021/10/24 03:40:40;;;;;;;6.22;2.95;;;5.70;99.90;;;;;;5085796;28;20055;-45
2021/10/24 03:43:05;;;;;;;8.57;2.83;;;5.70;99.90;;;;;;5077188;28;20678;-48
2021/10/24 03:45:31;;;;;;;11.48;3.78;;;5.70;99.90;;;;;;5085893;28;20118;-47
2021/10/24 03:47:56;;;;;;;17.30;4.55;;;5.70;99.90;;;;;;5082307;28;20497;-46
2021/10/24 03:50:22;;;;;;;10.27;3.85;;;5.60;99.90;;;;;;5087135;28;20039;-45
2021/10/24 03:52:48;;;;;;;15.48;3.92;;;5.70;99.90;;;;;;5086903;28;20074;-47
2021/10/24 03:55:14;;;;;;;20.98;4.60;;;5.60;99.90;;;;;;5067454;28;20038;-45
2021/10/24 03:57:40;;;;;;;12.50;3.72;;;5.60;99.90;;;;;;5085456;28;20563;-46
2021/10/24 04:00:08;;;;;;;8.13;3.20;;;5.60;99.90;;;;;;5083079;28;20020;-45
2021/10/24 04:02:33;;;;;;;7.43;3.28;;;5.60;99.90;;;;;;5088678;28;20028;-46
2021/10/24 04:04:59;;;;;;;8.18;3.05;;;5.60;99.90;;;;;;5083167;28;20432;-46
2021/10/24 04:07:24;;;;;;;7.13;3.00;;;5.60;99.90;;;;;;5089721;28;20028;-47
2021/10/24 04:09:50;;;;;;;8.98;2.75;;;5.60;99.90;;;;;;5082691;28;20039;-45
2021/10/24 04:12:15;;;;;;;9.75;3.55;;;5.60;99.90;;;;;;5085805;28;20024;-46
2021/10/24 04:14:41;;;;;;;6.93;3.17;;;5.60;99.90;;;;;;5074172;28;20112;-45
2021/10/24 04:17:07;;;;;;;9.77;3.40;;;5.60;99.90;;;;;;5082582;28;21032;-46
2021/10/24 04:19:33;;;;;;;10.77;3.17;;;5.60;99.90;;;;;;5075105;28;20033;-46
2021/10/24 04:21:59;;;;;;;11.75;3.72;;;5.60;99.90;;;;;;5083014;28;20208;-45
2021/10/24 04:24:24;;;;;;;7.10;3.58;;;5.60;99.90;;;;;;5078897;28;20075;-44
2021/10/24 04:26:50;;;;;;;9.80;2.95;;;5.60;99.90;;;;;;5080519;28;20099;-45
2021/10/24 04:29:15;;;;;;;9.43;3.08;;;5.50;99.90;;;;;;5084371;28;20667;-46
2021/10/24 04:31:41;;;;;;;15.52;3.38;;;5.50;99.90;;;;;;5078332;28;20020;-45
2021/10/24 04:34:07;;;;;;;14.57;3.53;;;5.50;99.90;;;;;;5087699;28;20264;-46
2021/10/24 04:36:33;;;;;;;8.52;2.90;;;5.50;99.90;;;;;;5075758;28;20064;-45
2021/10/24 04:38:59;;;;;;;11.70;3.75;;;5.50;99.90;;;;;;5090268;28;20043;-45
2021/10/24 04:41:24;;;;;;;10.63;3.40;;;5.50;99.90;;;;;;5076909;28;20075;-45
2021/10/24 04:43:50;;;;;;;7.47;2.95;;;5.50;99.90;;;;;;5089934;28;20448;-46
2021/10/24 04:46:15;;;;;;;9.52;3.25;;;5.50;99.90;;;;;;5076013;28;20186;-45
2021/10/24 04:48:41;;;;;;;15.10;3.90;;;5.50;99.90;;;;;;5081841;28;20047;-46
2021/10/24 04:51:07;;;;;;;7.40;3.05;;;5.50;99.90;;;;;;5085751;28;20085;-45
2021/10/24 04:53:32;;;;;;;9.40;3.47;;;5.50;99.90;;;;;;5075260;28;20063;-43
2021/10/24 04:55:58;;;;;;;7.57;3.40;;;5.50;99.90;;;;;;5091024;28;20436;-45
2021/10/24 04:58:23;;;;;;;11.30;3.45;;;5.50;99.90;;;;;;5089554;28;20032;-45
2021/10/24 05:00:49;;;;;;;12.60;3.90;;;5.40;99.90;;;;;;5090825;28;20028;-45
2021/10/24 05:03:14;;;;;;;13.68;3.35;;;5.40;99.90;;;;;;5078210;28;20562;-45
2021/10/24 05:05:40;;;;;;;8.23;3.50;;;5.40;99.90;;;;;;5077216;28;20036;-46
2021/10/24 05:08:05;;;;;;;9.38;3.60;;;5.30;99.90;;;;;;5089919;28;20055;-44
2021/10/24 05:10:31;;;;;;;14.25;3.63;;;5.30;99.90;;;;;;5076787;28;20032;-45
2021/10/24 05:12:57;;;;;;;11.98;3.33;;;5.30;99.90;;;;;;5066271;28;20035;-44
2021/10/24 05:15:23;;;;;;;7.32;3.85;;;5.30;99.90;;;;;;5059930;28;20040;-43
2021/10/24 05:17:49;;;;;;;7.78;3.90;;;5.30;99.90;;;;;;5058041;28;20543;-45
2021/10/24 05:20:15;;;;;;;10.27;4.45;;;5.30;99.90;;;;;;5058610;28;20027;-45
2021/10/24 05:22:40;;;;;;;9.10;4.20;;;5.30;99.90;;;;;;5058475;28;20095;-44
2021/10/24 05:25:06;;;;;;;10.05;4.70;;;5.30;99.90;;;;;;5060235;28;20593;-45
2021/10/24 05:27:32;;;;;;;9.02;4.50;;;5.30;99.90;;;;;;5057889;28;20039;-44
2021/10/24 05:29:57;;;;;;;9.70;4.30;;;5.20;99.90;;;;;;5058824;28;20024;-44
2021/10/24 05:32:23;;;;;;;6.93;4.32;;;5.20;99.90;;;;;;5049708;28;20083;-44
2021/10/24 05:34:49;;;;;;;9.85;4.75;;;5.20;99.90;;;;;;5078712;28;20028;-44
2021/10/24 05:37:15;;;;;;;8.88;4.30;;;5.20;99.90;;;;;;5087931;28;20032;-47
2021/10/24 05:39:40;;;;;;;8.90;3.67;;;5.20;99.90;;;;;;5089499;28;20028;-46
2021/10/24 05:42:06;;;;;;;8.90;3.35;;;5.10;99.90;;;;;;5089811;28;20515;-45
2021/10/24 05:44:32;;;;;;;15.70;3.85;;;5.10;99.90;;;;;;5089684;28;20043;-44
2021/10/24 05:46:57;;;;;;;11.27;3.35;;;5.10;99.90;;;;;;5089393;28;20033;-46
2021/10/24 05:49:23;;;;;;;6.03;3.20;;;5.10;99.90;;;;;;5089159;28;20024;-46
2021/10/24 05:51:49;;;;;;;10.40;3.88;;;5.10;99.90;;;;;;5089886;28;20027;-45
2021/10/24 05:54:15;;;;;;;10.85;3.78;;;5.20;99.90;;;;;;5089880;28;20027;-46
2021/10/24 05:56:41;;;;;;;8.80;3.10;;;5.20;99.90;;;;;;5074884;28;20028;-44
2021/10/24 05:59:06;;;;;;;10.07;3.90;;;5.20;99.90;;;;;;5082183;28;20030;-46
2021/10/24 06:01:32;;;;;;;9.48;3.88;;;5.30;99.90;;;;;;5075351;28;20410;-45
2021/10/24 06:03:57;;;;;;;11.55;4.43;;;5.40;99.90;;;;;;5081311;28;20035;-44
2021/10/24 06:06:23;;;;;;;8.93;4.22;;;5.40;99.90;;;;;;5089354;28;20040;-44
2021/10/24 06:08:49;;;;;;;12.15;3.67;;;5.40;99.90;;;;;;5087756;28;20027;-44
2021/10/24 06:13:44;;;;;;;9.70;4.03;;;5.40;99.90;;;;;;5080752;28;20132;-44
2021/10/24 06:16:10;;;;;;;9.27;4.13;;;5.40;99.90;;;;;;5087824;28;20074;-44
2021/10/24 06:18:38;;;;;;;13.43;3.53;;;5.50;99.90;;;;;;5084905;28;20448;-44
2021/10/24 06:21:05;;;;;;;10.13;3.67;;;5.50;99.90;;;;;;5081467;28;20024;-44
2021/10/24 06:23:31;;;;;;;8.57;4.07;;;5.50;99.90;;;;;;5089168;28;20432;-44
2021/10/24 06:25:56;;;;;;;9.48;3.78;;;5.60;99.90;;;;;;5088899;28;20139;-44
2021/10/24 06:28:22;;;;;;;15.23;4.20;;;5.50;99.90;;;;;;5088333;28;20028;-44
2021/10/24 06:30:47;;;;;;;6.00;4.28;;;5.60;99.90;;;;;;5088947;28;20363;-43
2021/10/24 06:33:13;;;;;;;7.35;4.40;;;5.60;99.90;;;;;;5089356;28;20095;-43
2021/10/24 06:35:38;;;;;;;7.22;3.60;;;5.60;99.90;;;;;;5086154;28;20389;-44
2021/10/24 06:38:04;;;;;;;14.57;4.07;;;5.60;99.90;;;;;;5079463;28;20077;-44
2021/10/24 06:40:29;;;;;;;9.90;4.05;;;5.60;99.90;;;;;;5088769;28;20067;-44
2021/10/24 06:42:55;;;;;;;9.25;3.58;;;5.60;99.90;;;;;;5088638;28;20020;-44
2021/10/24 06:45:21;;;;;;;6.90;3.78;;;5.60;99.90;;;;;;5081948;28;20047;-46
2021/10/24 06:47:49;;;;;;;8.85;4.90;;;5.70;99.90;;;;;;5079632;28;20039;-44
2021/10/24 06:50:15;;;;;;;10.27;3.80;;;5.70;99.90;;;;;;5087239;28;20024;-45
2021/10/24 06:52:40;;;;;;;7.50;3.38;;;5.70;99.90;;;;;;5088791;28;20022;-44
2021/10/24 06:55:06;;;;;;;13.48;3.65;;;5.80;99.90;;;;;;5082101;28;20032;-46
2021/10/24 06:57:47;;;;;;;10.90;3.80;;;5.80;99.90;;;;;;5057026;28;20051;-45
2021/10/24 07:00:13;;;;;;;;;;;5.80;99.90;;;;;;5056521;28;20398;-45
2021/10/24 07:02:39;;;;;;;6.60;3.10;;;5.90;99.90;;;;;;5061850;28;19911;-44
2021/10/24 07:05:05;;;;;;;9.68;3.40;;;5.90;99.90;;;;;;5056208;28;20032;-44
2021/10/24 07:07:30;;;;;;;6.63;2.85;;;6.00;99.90;;;;;;5058746;28;20029;-44
2021/10/24 07:09:56;;;;;;;10.52;3.55;;;6.00;99.90;;;;;;5065154;28;20028;-43
2021/10/24 07:12:21;;;;;;;13.40;3.35;;;6.10;99.90;;;;;;5074524;28;20024;-44
2021/10/24 07:14:46;;;;;;;11.10;4.38;;;6.10;99.90;;;;;;5087009;28;20032;-45
2021/10/24 07:17:12;;;;;;;12.95;4.00;;;6.20;99.90;;;;;;5087897;28;20031;-44
2021/10/24 07:19:38;;;;;;;8.25;3.17;;;6.20;99.90;;;;;;5088540;28;20114;-44
2021/10/24 07:22:04;;;;;;;6.80;3.70;;;6.30;99.90;;;;;;5092486;28;20032;-44
2021/10/24 07:24:29;;;;;;;10.38;3.95;;;6.30;99.90;;;;;;5092199;28;20028;-44
2021/10/24 07:26:55;;;;;;;9.95;3.70;;;6.40;99.90;;;;;;5091946;28;20028;-45
2021/10/24 07:29:20;;;;;;;8.77;3.85;;;6.50;99.90;;;;;;5092171;28;20377;-44
2021/10/24 07:31:46;;;;;;;9.93;3.47;;;6.50;99.90;;;;;;5087686;28;20024;-46
2021/10/24 07:34:12;;;;;;;9.45;2.92;;;6.60;99.90;;;;;;5074433;28;20470;-46
2021/10/24 07:36:37;;;;;;;5.53;3.15;;;6.60;99.90;;;;;;5090951;28;20047;-46
2021/10/24 07:39:03;;;;;;;8.50;3.50;;;6.70;99.90;;;;;;5090039;28;20128;-45
2021/10/24 07:41:28;;;;;;;10.02;3.33;;;6.80;99.90;;;;;;5085240;28;20034;-45
2021/10/24 07:43:53;;;;;;;13.10;3.85;;;6.90;99.90;;;;;;5093806;28;20024;-46
2021/10/24 07:46:19;;;;;;;16.50;3.80;;;6.90;99.90;;;;;;5076661;28;20205;-46
2021/10/24 07:48:45;;;;;;;10.40;3.78;;;7.00;99.90;;;;;;5089358;28;20021;-45
2021/10/24 07:51:10;;;;;;;11.48;3.63;;;7.10;99.90;;;;;;5092269;28;20073;-45
2021/10/24 07:53:36;;;;;;;7.75;3.60;;;7.10;99.90;;;;;;5092122;28;20020;-46
2021/10/24 07:56:02;;;;;;;12.70;4.25;;;7.20;99.90;;;;;;5091835;28;20073;-45
2021/10/24 07:58:28;;;;;;;12.02;3.25;;;7.30;99.90;;;;;;5091018;28;20016;-45
2021/10/24 08:00:54;;;;;;;11.98;3.58;;;7.30;99.90;;;;;;5091649;28;20134;-46
2021/10/24 08:03:19;;;;;;;7.07;3.25;;;7.40;99.90;;;;;;5083441;28;20025;-49
2021/10/24 08:05:45;;;;;;;11.45;3.47;;;7.50;99.90;;;;;;5081209;28;20033;-46
2021/10/24 08:08:10;;;;;;;8.10;3.95;;;7.60;99.90;;;;;;5091282;28;20024;-45
2021/10/24 08:10:37;;;;;;;10.52;3.58;;;7.60;99.90;;;;;;5083615;28;20033;-46
2021/10/24 08:13:02;;;;;;;8.35;3.47;;;7.70;99.90;;;;;;5082493;28;20024;-46
2021/10/24 08:15:28;;;;;;;9.27;3.20;;;7.70;99.90;;;;;;5089899;28;20076;-46
2021/10/24 08:17:53;;;;;;;8.85;3.70;;;7.80;99.90;;;;;;5091321;28;20099;-48
2021/10/24 08:20:19;;;;;;;7.00;3.10;;;7.80;99.90;;;;;;5074362;28;20275;-46
2021/10/24 08:22:45;;;;;;;7.65;3.50;;;8.00;99.90;;;;;;5062280;28;20029;-46
2021/10/24 08:25:11;;;;;;;9.52;2.80;;;8.00;99.90;;;;;;5060301;28;20025;-45
2021/10/24 08:27:37;;;;;;;8.95;3.15;;;8.10;99.90;;;;;;5059768;28;20025;-49
2021/10/24 08:30:06;;;;;;;10.02;4.18;;;8.20;99.90;;;;;;5062796;28;20161;-45
2021/10/24 08:32:32;;;;;;;11.40;3.50;;;8.30;99.90;;;;;;5061270;28;20017;-46
2021/10/24 08:34:58;;;;;;;8.43;3.25;;;8.40;99.90;;;;;;5069196;28;20715;-46
2021/10/24 08:37:24;;;;;;;7.78;3.55;;;8.50;99.90;;;;;;5060418;28;20029;-45
2021/10/24 08:39:52;;;;;;;6.30;3.10;;;8.60;99.90;;;;;;5059334;28;20043;-48
2021/10/24 08:42:27;;;;;;;7.63;3.05;;;8.70;99.90;;;;;;5059012;28;20167;-49
2021/10/24 08:44:56;;;;;;;10.70;3.22;;;8.70;99.90;;;;;;5063090;28;20032;-47
2021/10/24 08:47:23;;;;;;;7.32;3.17;;;8.90;99.90;;;;;;5061714;28;20040;-45
2021/10/24 08:49:49;;;;;;;9.07;2.63;;;9.00;99.90;;;;;;5071634;28;20012;-47
2021/10/24 08:52:16;;;;;;;11.20;3.45;;;9.10;99.90;;;;;;5084807;28;20024;-46
2021/10/24 08:54:42;;;;;;;11.75;3.33;;;9.20;99.90;;;;;;5090556;28;20024;-47
2021/10/24 08:57:09;;;;;;;11.77;3.05;;;9.30;99.90;;;;;;5090189;28;20077;-46
2021/10/24 08:59:38;;;;;;;8.98;3.05;;;9.40;99.90;;;;;;5090881;28;20028;-47
2021/10/24 09:02:04;;;;;;;10.57;4.47;;;9.60;99.90;;;;;;5089588;28;20117;-47
2021/10/24 09:04:29;;;;;;;11.80;3.55;;;9.80;99.90;;;;;;5090573;28;20020;-46
2021/10/24 09:07:01;;;;;;;8.52;3.10;;;10.00;99.90;;;;;;5069860;28;20044;-46
2021/10/24 09:09:30;;;;;;;8.13;2.88;;;10.30;99.90;;;;;;5086205;28;20020;-45
2021/10/24 09:11:57;;;;;;;5.10;2.20;;;11.30;99.90;;;;;;5075494;28;20272;-45
2021/10/24 09:14:42;;;;;;;6.35;2.80;;;13.30;99.80;;;;;;5080540;28;20497;-47
2021/10/24 09:17:13;;;;;;;5.05;2.45;;;15.40;91.40;;;;;;5089577;28;20028;-46
2021/10/24 09:19:42;;;;;;;4.63;1.80;;;17.60;87.10;;;;;;5089941;28;20085;-48
2021/10/24 09:22:13;;;;;;;8.73;2.40;;;19.50;71.30;;;;;;5088692;28;20024;-45
2021/10/24 09:24:39;;;;;;;3.75;2.10;;;20.60;65.20;;;;;;5089942;28;20110;-46
2021/10/24 09:27:14;;;;;;;5.50;2.45;;;21.20;59.00;;;;;;5089205;28;20602;-46
2021/10/24 09:29:47;;;;;;;3.47;1.88;;;22.50;55.40;;;;;;5089953;28;20140;-48
2021/10/24 09:32:13;;;;;;;6.90;2.00;;;23.90;49.80;;;;;;5088768;28;20111;-50
2021/10/24 09:34:38;;;;;;;5.63;1.98;;;22.80;51.10;;;;;;5086981;28;20098;-50
2021/10/24 09:37:04;;;;;;;6.65;2.20;;;22.50;48.60;;;;;;5087584;28;20191;-49
2021/10/24 09:39:36;;;;;;;7.55;2.38;;;22.90;50.00;;;;;;5088271;28;20032;-47
2021/10/24 09:42:17;;;;;;;3.90;2.08;;;23.30;50.20;;;;;;5073668;28;20034;-47
2021/10/24 09:45:01;;;;;;;7.50;2.22;;;24.10;48.20;;;;;;5070246;28;20110;-48
2021/10/24 09:47:28;;;;;;;6.22;1.90;;;24.30;46.20;;;;;;5079579;28;20040;-48
2021/10/24 09:49:53;;;;;;;4.97;2.17;;;25.10;45.70;;;;;;5080378;28;20411;-47
2021/10/24 09:52:32;;;;;;;4.20;1.75;;;26.20;44.20;;;;;;5049436;28;20531;-46
2021/10/24 09:54:59;;;;;;;3.20;1.83;;;26.40;43.60;;;;;;5055655;28;20027;-46
2021/10/24 09:57:24;;;;;;;5.30;2.30;;;26.60;42.50;;;;;;5066628;28;20247;-47
2021/10/24 09:59:54;;;;;;;4.10;1.67;;;25.30;41.10;;;;;;5052646;28;20057;-47
2021/10/24 10:02:21;;;;;;;5.60;1.92;;;24.90;41.70;;;;;;5049211;28;20021;-47
2021/10/24 10:04:47;;;;;;;8.48;2.20;;;25.70;42.70;;;;;;5049293;28;20041;-48
2021/10/24 10:07:17;;;;;;;8.43;2.60;;;26.80;42.30;;;;;;5048491;28;20112;-46
2021/10/24 10:09:44;;;;;;;3.72;1.48;;;26.00;39.90;;;;;;5048634;28;20021;-48
2021/10/24 10:12:14;;;;;;;2.90;1.58;;;26.40;41.10;;;;;;5058860;28;20035;-47
2021/10/24 10:14:44;;;;;;;6.30;1.92;;;26.30;40.30;;;;;;5080917;28;20043;-49
2021/10/24 10:17:14;;;;;;;;;;;26.60;38.70;;;;;;5087833;28;20035;-46
2021/10/24 10:19:42;;;;;;;4.15;1.83;;;23.20;41.70;;;;;;5082905;28;19915;-50
2021/10/24 10:22:27;;;;;;;3.33;1.77;;;23.20;43.00;;;;;;5068857;28;20028;-49
2021/10/24 10:25:05;;;;;;;7.32;2.00;;;23.70;42.70;;;;;;5063229;28;20373;-49
2021/10/24 10:27:34;;;;;;;2.33;1.42;;;23.50;41.60;;;;;;5079988;28;20474;-49
2021/10/24 10:30:07;;;;;;;4.18;2.05;;;23.10;44.40;;;;;;5089296;28;20039;-48
2021/10/24 10:32:46;;;;;;;3.42;2.03;;;23.70;43.70;;;;;;5090438;28;20116;-46
2021/10/24 10:35:12;;;;;;;4.28;1.80;;;24.30;43.50;;;;;;5089030;28;20024;-48
2021/10/24 10:37:50;;;;;;;5.68;2.17;;;25.90;40.30;;;;;;5088370;28;20101;-46
2021/10/24 10:40:32;;;;;;;5.05;1.85;;;26.20;40.10;;;;;;5076080;28;20033;-50
2021/10/24 10:43:11;;;;;;;2.97;1.42;;;26.70;39.00;;;;;;5048463;28;20025;-46
2021/10/24 10:45:40;;;;;;;5.17;1.90;;;25.50;42.00;;;;;;5048120;28;20021;-47
2021/10/24 10:48:26;;;;;;;3.08;1.95;;;25.90;39.20;;;;;;5056241;28;20031;-48
2021/10/24 10:50:56;;;;;;;3.75;1.83;;;26.10;40.50;;;;;;5080276;28;20059;-48
2021/10/24 10:53:31;;;;;;;3.45;2.03;;;25.50;40.10;;;;;;5088888;28;20110;-50
2021/10/24 10:55:56;;;;;;;4.05;1.83;;;25.90;39.70;;;;;;5079625;28;20051;-50
2021/10/24 10:58:32;;;;;;;4.22;1.98;;;25.80;39.80;;;;;;5081218;28;20032;-46
2021/10/24 11:00:58;;;;;;;3.42;1.88;;;26.40;40.00;;;;;;5055322;28;20032;-46
2021/10/24 11:03:48;;;;;;;6.80;2.38;;;25.70;40.50;;;;;;5061451;28;20024;-47
2021/10/24 11:06:22;;;;;;;;;;;25.10;40.30;;;;;;5071240;28;20032;-46
2021/10/24 11:08:48;;;;;;;7.47;2.28;;;25.10;41.50;;;;;;5066411;28;19935;-50
2021/10/24 11:11:34;;;;;;;6.20;2.25;;;24.50;42.20;;;;;;5060438;28;20546;-49
2021/10/24 11:13:59;;;;;;;7.45;1.90;;;25.50;43.80;;;;;;5047832;28;20474;-47
2021/10/24 11:16:46;;;;;;;3.75;2.00;;;24.40;41.30;;;;;;5046827;28;20033;-46
2021/10/24 11:19:27;;;;;;;5.72;1.77;;;24.20;40.60;;;;;;5047804;28;20432;-49
2021/10/24 11:22:05;;;;;;;5.47;2.03;;;24.60;41.70;;;;;;5048198;28;20021;-48
2021/10/24 11:24:54;;;;;;;8.75;4.43;;;23.50;41.00;;;;;;5048165;28;20443;-48
2021/10/24 11:27:27;;;;;;;4.78;1.92;;;22.00;44.60;;;;;;5047434;28;20083;-47
2021/10/24 11:29:57;;;;;;;2.50;1.75;;;21.00;44.80;;;;;;5048255;28;20047;-46
2021/10/24 11:32:37;;;;;;;4.60;1.90;;;21.10;46.30;;;;;;5048198;28;20036;-46
2021/10/24 11:35:17;;;;;;;4.60;2.10;;;21.90;45.70;;;;;;5048432;28;20021;-46
2021/10/24 11:37:48;;;;;;;6.53;2.40;;;22.40;44.70;;;;;;5046493;28;20275;-47
2021/10/24 11:40:23;;;;;;;5.68;2.10;;;22.50;44.60;;;;;;5059428;28;20126;-46
2021/10/24 11:42:59;;;;;;;7.45;2.47;;;21.40;45.60;;;;;;5079622;28;20105;-49
2021/10/24 11:45:26;;;;;;;7.47;2.20;;;21.70;46.90;;;;;;5088321;28;20411;-46
2021/10/24 11:47:57;;;;;;;6.20;2.10;;;21.40;45.90;;;;;;5082660;28;20028;-48
2021/10/24 11:50:43;;;;;;;4.88;2.38;;;21.60;46.90;;;;;;5070570;28;20021;-45
2021/10/24 11:53:32;;;;;;;3.50;1.80;;;21.30;47.30;;;;;;5047710;28;20021;-46
2021/10/24 11:56:01;;;;;;;7.35;2.85;;;21.00;47.70;;;;;;5054542;28;20477;-49
2021/10/24 11:59:14;;;;;;;4.55;2.28;;;20.40;48.70;;;;;;5078860;28;20028;-46
2021/10/24 12:01:19;;;;;;;;;;;20.80;48.80;;;;;;5082600;28;20043;-47
2021/10/24 12:03:58;;;;;;;6.00;2.05;;;20.50;47.40;;;;;;5088043;28;19904;-45
2021/10/24 12:06:47;;;;;;;6.93;2.17;;;20.20;49.60;;;;;;5089281;28;20031;-46
2021/10/24 12:09:14;;;;;;;6.57;2.45;;;21.50;48.30;;;;;;5088694;28;20030;-47
2021/10/24 12:11:45;;;;;;;3.60;2.20;;;22.20;47.10;;;;;;5081058;28;20027;-46
2021/10/24 12:14:12;;;;;;;6.85;2.40;;;22.80;45.80;;;;;;5091681;28;20065;-46
2021/10/24 12:16:43;;;;;;;6.85;2.85;;;22.30;46.70;;;;;;5091550;28;20105;-46
2021/10/24 12:19:17;;;;;;;6.22;2.60;;;21.10;47.60;;;;;;5091054;28;20020;-49
2021/10/24 12:22:07;;;;;;;6.03;2.53;;;20.20;50.70;;;;;;5091691;28;20030;-46
2021/10/24 12:24:44;;;;;;;7.60;2.28;;;20.20;50.50;;;;;;5091730;28;20466;-46
2021/10/24 12:27:16;;;;;;;6.75;2.40;;;19.90;49.90;;;;;;5089206;28;20024;-46
2021/10/24 12:30:11;;;;;;;6.88;2.50;;;19.80;51.40;;;;;;5086946;28;20036;-46
2021/10/24 12:32:52;;;;;;;8.93;2.42;;;20.00;50.70;;;;;;5088533;28;20477;-48
2021/10/24 12:35:17;;;;;;;6.47;2.65;;;20.00;51.00;;;;;;5091619;28;20032;-47
2021/10/24 12:37:43;;;;;;;3.80;2.45;;;20.40;50.50;;;;;;5090924;28;20101;-46
2021/10/24 12:40:22;;;;;;;4.20;2.00;;;20.70;48.30;;;;;;5091407;28;20269;-47
2021/10/24 12:43:00;;;;;;;5.18;2.28;;;20.00;50.20;;;;;;5090897;28;20100;-49
2021/10/24 12:45:26;;;;;;;6.15;2.70;;;19.90;50.40;;;;;;5091367;28;20039;-46
2021/10/24 12:47:56;;;;;;;4.32;2.10;;;19.40;50.60;;;;;;5080502;28;20373;-46
2021/10/24 12:50:32;;;;;;;;;;;18.90;52.30;;;;;;5081596;28;20549;-46
2021/10/24 12:53:06;;;;;;;8.52;2.08;;;18.60;53.20;;;;;;5089402;28;19911;-49
2021/10/24 12:55:33;;;;;;;5.15;2.35;;;18.80;53.10;;;;;;5091028;28;20028;-47
2021/10/24 12:58:00;;;;;;;3.55;2.22;;;19.20;53.30;;;;;;5090121;28;20028;-45
2021/10/24 13:00:27;;;;;;;6.35;2.30;;;19.50;51.70;;;;;;5090682;28;20024;-46